sensor_id;sensor_type;location;lat;lon;timestamp;pressure;altitude;pressure_sealevel;temperature;humidity
50349;BME280;36250;48.740;22.174;2022-07-29T00:01:42;100314.41;;;20.37;73.16
50349;BME280;36250;48.740;22.174;2022-07-29T00:04:07;100311.84;;;20.25;73.67
50349;BME280;36250;48.740;22.174;2022-07-29T00:06:32;100311.28;;;20.23;73.26
50349;BME280;36250;48.740;22.174;2022-07-29T00:08:58;100310.78;;;20.26;72.96
50349;BME280;36250;48.740;22.174;2022-07-29T00:11:23;100317.34;;;20.35;72.79
50349;BME280;36250;48.740;22.174;2022-07-29T00:13:48;100320.03;;;20.35;72.77
50349;BME280;36250;48.740;22.174;2022-07-29T00:16:13;100315.47;;;20.36;72.35
50349;BME280;36250;48.740;22.174;2022-07-29T00:18:38;100308.00;;;20.43;72.01
50349;BME280;36250;48.740;22.174;2022-07-29T00:21:04;100312.31;;;20.44;71.96
50349;BME280;36250;48.740;22.174;2022-07-29T00:23:29;100317.28;;;20.30;72.86
50349;BME280;36250;48.740;22.174;2022-07-29T00:25:54;100318.63;;;20.27;72.81
50349;BME280;36250;48.740;22.174;2022-07-29T00:28:20;100314.88;;;20.29;72.41
50349;BME280;36250;48.740;22.174;2022-07-29T00:30:45;100316.53;;;20.35;72.12
50349;BME280;36250;48.740;22.174;2022-07-29T00:33:10;100319.09;;;20.47;71.48
50349;BME280;36250;48.740;22.174;2022-07-29T00:35:35;100320.78;;;20.58;70.80
50349;BME280;36250;48.740;22.174;2022-07-29T00:38:11;100326.53;;;20.67;70.46
50349;BME280;36250;48.740;22.174;2022-07-29T00:40:36;100320.88;;;20.68;70.52
50349;BME280;36250;48.740;22.174;2022-07-29T00:43:01;100332.81;;;20.50;72.47
50349;BME280;36250;48.740;22.174;2022-07-29T00:45:27;100336.00;;;20.20;74.33
50349;BME280;36250;48.740;22.174;2022-07-29T00:47:52;100335.19;;;19.97;75.33
50349;BME280;36250;48.740;22.174;2022-07-29T00:50:17;100345.78;;;19.87;75.86
50349;BME280;36250;48.740;22.174;2022-07-29T00:52:43;100340.19;;;19.88;75.75
50349;BME280;36250;48.740;22.174;2022-07-29T00:55:10;100341.91;;;19.94;75.99
50349;BME280;36250;48.740;22.174;2022-07-29T00:57:35;100335.50;;;20.01;75.58
50349;BME280;36250;48.740;22.174;2022-07-29T01:00:02;100334.50;;;20.07;74.85
50349;BME280;36250;48.740;22.174;2022-07-29T01:02:27;100334.44;;;20.02;75.49
50349;BME280;36250;48.740;22.174;2022-07-29T01:04:53;100329.53;;;19.93;76.21
50349;BME280;36250;48.740;22.174;2022-07-29T01:07:18;100337.44;;;19.83;76.88
50349;BME280;36250;48.740;22.174;2022-07-29T01:09:43;100339.16;;;19.72;77.88
50349;BME280;36250;48.740;22.174;2022-07-29T01:12:10;100336.66;;;19.65;78.51
50349;BME280;36250;48.740;22.174;2022-07-29T01:14:36;100344.16;;;19.63;79.11
50349;BME280;36250;48.740;22.174;2022-07-29T01:17:12;100346.34;;;19.66;79.13
50349;BME280;36250;48.740;22.174;2022-07-29T01:22:28;100343.53;;;19.78;77.80
50349;BME280;36250;48.740;22.174;2022-07-29T01:30:19;100333.72;;;19.67;77.73
50349;BME280;36250;48.740;22.174;2022-07-29T01:32:47;100333.97;;;19.65;77.69
50349;BME280;36250;48.740;22.174;2022-07-29T01:35:25;100329.16;;;19.67;78.24
50349;BME280;36250;48.740;22.174;2022-07-29T01:40:29;100325.66;;;19.67;78.76
50349;BME280;36250;48.740;22.174;2022-07-29T01:42:56;100332.09;;;19.66;79.67
50349;BME280;36250;48.740;22.174;2022-07-29T01:45:32;100329.16;;;19.67;79.61
50349;BME280;36250;48.740;22.174;2022-07-29T01:48:06;100329.16;;;19.67;79.45
50349;BME280;36250;48.740;22.174;2022-07-29T01:50:46;100323.28;;;19.71;79.22
50349;BME280;36250;48.740;22.174;2022-07-29T01:53:12;100331.41;;;19.76;78.90
50349;BME280;36250;48.740;22.174;2022-07-29T01:55:40;100322.59;;;19.58;76.69
50349;BME280;36250;48.740;22.174;2022-07-29T01:58:07;100325.13;;;19.48;77.04
50349;BME280;36250;48.740;22.174;2022-07-29T02:00:34;100326.69;;;19.44;77.09
50349;BME280;36250;48.740;22.174;2022-07-29T02:03:00;100325.88;;;19.43;76.84
50349;BME280;36250;48.740;22.174;2022-07-29T02:05:27;100327.25;;;19.46;76.77
50349;BME280;36250;48.740;22.174;2022-07-29T02:07:53;100329.94;;;19.46;76.81
50349;BME280;36250;48.740;22.174;2022-07-29T02:10:21;100328.56;;;19.43;76.65
50349;BME280;36250;48.740;22.174;2022-07-29T02:12:47;100325.81;;;19.38;76.73
50349;BME280;36250;48.740;22.174;2022-07-29T02:15:13;100322.28;;;19.37;76.93
50349;BME280;36250;48.740;22.174;2022-07-29T02:17:46;100319.03;;;19.35;77.48
50349;BME280;36250;48.740;22.174;2022-07-29T02:20:13;100317.09;;;19.31;77.56
50349;BME280;36250;48.740;22.174;2022-07-29T02:22:40;100312.22;;;19.28;77.54
50349;BME280;36250;48.740;22.174;2022-07-29T02:25:06;100320.22;;;19.22;77.70
50349;BME280;36250;48.740;22.174;2022-07-29T02:27:33;100322.06;;;19.22;77.81
50349;BME280;36250;48.740;22.174;2022-07-29T02:29:59;100323.47;;;19.24;77.54
50349;BME280;36250;48.740;22.174;2022-07-29T02:32:25;100322.06;;;19.22;77.52
50349;BME280;36250;48.740;22.174;2022-07-29T02:34:52;100320.22;;;19.22;77.50
50349;BME280;36250;48.740;22.174;2022-07-29T02:37:17;100327.22;;;19.23;77.36
50349;BME280;36250;48.740;22.174;2022-07-29T02:39:43;100321.84;;;19.23;77.19
50349;BME280;36250;48.740;22.174;2022-07-29T02:42:10;100319.16;;;19.23;77.27
50349;BME280;36250;48.740;22.174;2022-07-29T02:44:36;100318.81;;;19.20;77.67
50349;BME280;36250;48.740;22.174;2022-07-29T02:47:04;100322.50;;;19.14;77.89
50349;BME280;36250;48.740;22.174;2022-07-29T02:51:58;100319.81;;;19.14;77.79
50349;BME280;36250;48.740;22.174;2022-07-29T02:56:53;100320.09;;;18.83;78.92
50349;BME280;36250;48.740;22.174;2022-07-29T02:59:21;100311.06;;;18.72;79.19
50349;BME280;36250;48.740;22.174;2022-07-29T03:01:48;100317.00;;;18.74;79.65
50349;BME280;36250;48.740;22.174;2022-07-29T03:04:14;100314.06;;;18.76;79.71
50349;BME280;36250;48.740;22.174;2022-07-29T03:06:40;100311.97;;;18.78;79.48
50349;BME280;36250;48.740;22.174;2022-07-29T03:09:07;100307.81;;;18.87;79.28
50349;BME280;36250;48.740;22.174;2022-07-29T03:11:32;100309.88;;;18.97;78.75
50349;BME280;36250;48.740;22.174;2022-07-29T03:13:59;100304.34;;;19.04;78.27
50349;BME280;36250;48.740;22.174;2022-07-29T03:16:24;100303.63;;;19.08;78.16
50349;BME280;36250;48.740;22.174;2022-07-29T03:18:50;100314.44;;;19.14;77.93
50349;BME280;36250;48.740;22.174;2022-07-29T03:21:15;100318.03;;;19.19;77.65
50349;BME280;36250;48.740;22.174;2022-07-29T03:23:44;100318.66;;;19.27;77.21
50349;BME280;36250;48.740;22.174;2022-07-29T03:26:10;100322.78;;;19.34;76.74
50349;BME280;36250;48.740;22.174;2022-07-29T03:28:35;100321.81;;;19.40;76.46
50349;BME280;36250;48.740;22.174;2022-07-29T03:31:01;100320.00;;;19.46;76.26
50349;BME280;36250;48.740;22.174;2022-07-29T03:33:26;100325.44;;;19.51;75.88
50349;BME280;36250;48.740;22.174;2022-07-29T03:35:51;100323.41;;;19.59;75.60
50349;BME280;36250;48.740;22.174;2022-07-29T03:38:16;100322.16;;;19.66;75.23
50349;BME280;36250;48.740;22.174;2022-07-29T03:43:07;100321.31;;;19.83;74.36
50349;BME280;36250;48.740;22.174;2022-07-29T03:45:33;100319.47;;;19.89;74.00
50349;BME280;36250;48.740;22.174;2022-07-29T03:48:01;100315.25;;;19.93;73.51
50349;BME280;36250;48.740;22.174;2022-07-29T03:50:27;100308.06;;;19.98;73.41
50349;BME280;36250;48.740;22.174;2022-07-29T03:52:53;100308.44;;;20.07;73.06
50349;BME280;36250;48.740;22.174;2022-07-29T03:55:18;100316.34;;;20.19;72.44
50349;BME280;36250;48.740;22.174;2022-07-29T03:57:44;100312.19;;;20.29;71.79
50349;BME280;36250;48.740;22.174;2022-07-29T04:00:09;100309.25;;;20.35;71.57
50349;BME280;36250;48.740;22.174;2022-07-29T04:02:35;100304.19;;;20.39;71.46
50349;BME280;36250;48.740;22.174;2022-07-29T04:05:01;100311.25;;;20.45;71.23
50349;BME280;36250;48.740;22.174;2022-07-29T04:07:26;100313.22;;;20.55;71.12
50349;BME280;36250;48.740;22.174;2022-07-29T04:09:51;100309.56;;;20.66;70.39
50349;BME280;36250;48.740;22.174;2022-07-29T04:12:16;100314.53;;;20.80;70.21
50349;BME280;36250;48.740;22.174;2022-07-29T04:14:42;100312.75;;;20.91;69.84
50349;BME280;36250;48.740;22.174;2022-07-29T04:17:07;100302.38;;;21.05;69.36
50349;BME280;36250;48.740;22.174;2022-07-29T04:19:32;100307.28;;;21.18;68.80
50349;BME280;36250;48.740;22.174;2022-07-29T04:21:58;100300.41;;;21.33;68.52
50349;BME280;36250;48.740;22.174;2022-07-29T04:24:24;100303.16;;;21.48;67.77
50349;BME280;36250;48.740;22.174;2022-07-29T04:26:50;100301.88;;;21.61;67.32
50349;BME280;36250;48.740;22.174;2022-07-29T04:29:15;100300.09;;;21.72;67.16
50349;BME280;36250;48.740;22.174;2022-07-29T04:31:40;100307.13;;;21.83;66.07
50349;BME280;36250;48.740;22.174;2022-07-29T04:34:06;100298.53;;;21.92;66.04
50349;BME280;36250;48.740;22.174;2022-07-29T04:36:31;100300.22;;;22.03;65.85
50349;BME280;36250;48.740;22.174;2022-07-29T04:38:57;100299.16;;;22.14;65.49
50349;BME280;36250;48.740;22.174;2022-07-29T04:41:22;100298.09;;;22.26;65.23
50349;BME280;36250;48.740;22.174;2022-07-29T04:43:47;100293.25;;;22.38;64.86
50349;BME280;36250;48.740;22.174;2022-07-29T04:46:13;100300.31;;;22.50;64.66
50349;BME280;36250;48.740;22.174;2022-07-29T04:48:38;100293.03;;;22.61;64.25
50349;BME280;36250;48.740;22.174;2022-07-29T04:51:03;100295.47;;;22.72;62.92
50349;BME280;36250;48.740;22.174;2022-07-29T04:53:28;100301.13;;;22.86;62.22
50349;BME280;36250;48.740;22.174;2022-07-29T04:55:53;100307.59;;;23.01;61.77
50349;BME280;36250;48.740;22.174;2022-07-29T04:58:19;100307.06;;;23.14;61.41
50349;BME280;36250;48.740;22.174;2022-07-29T05:00:44;100301.66;;;23.25;60.63
50349;BME280;36250;48.740;22.174;2022-07-29T05:03:09;100308.63;;;23.41;60.58
50349;BME280;36250;48.740;22.174;2022-07-29T05:05:34;100303.75;;;23.54;59.97
50349;BME280;36250;48.740;22.174;2022-07-29T05:07:59;100309.69;;;23.61;59.67
50349;BME280;36250;48.740;22.174;2022-07-29T05:10:25;100305.31;;;23.65;59.48
50349;BME280;36250;48.740;22.174;2022-07-29T05:12:50;100304.50;;;23.70;58.68
50349;BME280;36250;48.740;22.174;2022-07-29T05:15:15;100314.75;;;23.78;60.16
50349;BME280;36250;48.740;22.174;2022-07-29T05:17:42;100313.94;;;23.72;60.39
50349;BME280;36250;48.740;22.174;2022-07-29T05:20:07;100311.81;;;23.69;60.69
50349;BME280;36250;48.740;22.174;2022-07-29T05:22:33;100320.16;;;23.78;60.16
50349;BME280;36250;48.740;22.174;2022-07-29T05:24:58;100312.81;;;23.89;59.13
50349;BME280;36250;48.740;22.174;2022-07-29T05:27:23;100315.72;;;24.03;59.60
50349;BME280;36250;48.740;22.174;2022-07-29T05:29:48;100317.53;;;24.18;58.92
50349;BME280;36250;48.740;22.174;2022-07-29T05:32:14;100311.50;;;24.37;58.74
50349;BME280;36250;48.740;22.174;2022-07-29T05:34:39;100310.81;;;24.55;57.85
50349;BME280;36250;48.740;22.174;2022-07-29T05:37:04;100302.34;;;24.67;56.11
50349;BME280;36250;48.740;22.174;2022-07-29T05:39:30;100305.19;;;24.86;55.77
50349;BME280;36250;48.740;22.174;2022-07-29T05:41:55;100293.66;;;25.00;55.34
50349;BME280;36250;48.740;22.174;2022-07-29T05:44:20;100302.47;;;25.16;55.59
50349;BME280;36250;48.740;22.174;2022-07-29T05:46:45;100297.22;;;25.25;53.98
50349;BME280;36250;48.740;22.174;2022-07-29T05:49:11;100298.91;;;25.21;54.88
50349;BME280;36250;48.740;22.174;2022-07-29T05:51:36;100304.91;;;25.17;54.80
50349;BME280;36250;48.740;22.174;2022-07-29T05:54:02;100303.28;;;25.16;55.04
50349;BME280;36250;48.740;22.174;2022-07-29T05:56:27;100296.78;;;25.17;55.16
50349;BME280;36250;48.740;22.174;2022-07-29T05:58:53;100302.72;;;25.20;54.81
50349;BME280;36250;48.740;22.174;2022-07-29T06:01:18;100299.94;;;25.25;53.81
50349;BME280;36250;48.740;22.174;2022-07-29T06:03:43;100302.41;;;25.21;54.34
50349;BME280;36250;48.740;22.174;2022-07-29T06:06:09;100297.75;;;25.27;52.89
50349;BME280;36250;48.740;22.174;2022-07-29T06:08:35;100299.03;;;25.35;53.37
50349;BME280;36250;48.740;22.174;2022-07-29T06:11:01;100299.41;;;25.52;53.44
50349;BME280;36250;48.740;22.174;2022-07-29T06:13:26;100302.16;;;25.71;52.98
50349;BME280;36250;48.740;22.174;2022-07-29T06:15:51;100299.16;;;25.73;52.88
50349;BME280;36250;48.740;22.174;2022-07-29T06:18:16;100303.13;;;25.81;52.61
50349;BME280;36250;48.740;22.174;2022-07-29T06:20:42;100306.28;;;25.88;51.91
50349;BME280;36250;48.740;22.174;2022-07-29T06:23:07;100304.47;;;26.02;53.07
50349;BME280;36250;48.740;22.174;2022-07-29T06:25:32;100310.34;;;26.10;52.50
50349;BME280;36250;48.740;22.174;2022-07-29T06:28:00;100312.72;;;26.16;53.12
50349;BME280;36250;48.740;22.174;2022-07-29T06:30:25;100302.34;;;25.99;53.04
50349;BME280;36250;48.740;22.174;2022-07-29T06:32:51;100300.16;;;26.01;52.93
50349;BME280;36250;48.740;22.174;2022-07-29T06:35:16;100307.78;;;25.99;52.74
50349;BME280;36250;48.740;22.174;2022-07-29T06:37:41;100307.25;;;25.97;53.45
50349;BME280;36250;48.740;22.174;2022-07-29T06:40:07;100300.94;;;26.02;52.56
50349;BME280;36250;48.740;22.174;2022-07-29T06:42:51;100303.28;;;26.09;52.89
50349;BME280;36250;48.740;22.174;2022-07-29T06:45:16;100298.91;;;26.13;52.89
50349;BME280;36250;48.740;22.174;2022-07-29T06:47:41;100296.69;;;26.15;52.62
50349;BME280;36250;48.740;22.174;2022-07-29T06:50:07;100295.63;;;26.16;52.75
50349;BME280;36250;48.740;22.174;2022-07-29T06:52:36;100294.38;;;26.27;51.91
50349;BME280;36250;48.740;22.174;2022-07-29T06:55:01;100292.13;;;26.49;51.49
50349;BME280;36250;48.740;22.174;2022-07-29T06:57:27;100304.25;;;26.56;51.39
50349;BME280;36250;48.740;22.174;2022-07-29T06:59:52;100296.53;;;26.64;51.01
50349;BME280;36250;48.740;22.174;2022-07-29T07:02:17;100294.16;;;26.76;51.30
50349;BME280;36250;48.740;22.174;2022-07-29T07:04:42;100289.28;;;26.92;50.42
50349;BME280;36250;48.740;22.174;2022-07-29T07:07:08;100292.75;;;27.12;50.15
50349;BME280;36250;48.740;22.174;2022-07-29T07:09:33;100296.06;;;27.09;50.39
50349;BME280;36250;48.740;22.174;2022-07-29T07:11:58;100294.97;;;27.24;49.96
50349;BME280;36250;48.740;22.174;2022-07-29T07:14:23;100292.75;;;27.26;49.54
50349;BME280;36250;48.740;22.174;2022-07-29T07:16:51;100287.81;;;27.28;48.88
50349;BME280;36250;48.740;22.174;2022-07-29T07:19:16;100291.53;;;27.32;48.31
50349;BME280;36250;48.740;22.174;2022-07-29T07:21:43;100291.94;;;27.39;48.98
50349;BME280;36250;48.740;22.174;2022-07-29T07:24:08;100287.50;;;27.43;48.51
50349;BME280;36250;48.740;22.174;2022-07-29T07:26:33;100290.47;;;27.61;48.04
50349;BME280;36250;48.740;22.174;2022-07-29T07:28:58;100285.78;;;27.47;47.75
50349;BME280;36250;48.740;22.174;2022-07-29T07:31:25;100285.91;;;27.42;48.70
50349;BME280;36250;48.740;22.174;2022-07-29T07:33:50;100285.53;;;27.63;48.26
50349;BME280;36250;48.740;22.174;2022-07-29T07:36:16;100282.88;;;27.72;47.22
50349;BME280;36250;48.740;22.174;2022-07-29T07:38:41;100286.50;;;27.81;46.63
50349;BME280;36250;48.740;22.174;2022-07-29T07:41:06;100288.38;;;27.95;46.54
50349;BME280;36250;48.740;22.174;2022-07-29T07:43:32;100283.78;;;27.81;46.58
50349;BME280;36250;48.740;22.174;2022-07-29T07:45:57;100285.63;;;28.09;46.76
50349;BME280;36250;48.740;22.174;2022-07-29T07:48:22;100283.44;;;28.33;46.31
50349;BME280;36250;48.740;22.174;2022-07-29T07:50:48;100288.94;;;28.42;45.88
50349;BME280;36250;48.740;22.174;2022-07-29T07:53:14;100295.59;;;28.50;46.08
50349;BME280;36250;48.740;22.174;2022-07-29T07:55:40;100288.38;;;28.77;45.01
50349;BME280;36250;48.740;22.174;2022-07-29T07:58:05;100289.63;;;28.94;44.58
50349;BME280;36250;48.740;22.174;2022-07-29T08:00:30;100284.09;;;29.16;44.41
50349;BME280;36250;48.740;22.174;2022-07-29T08:02:57;100278.28;;;29.00;43.45
50349;BME280;36250;48.740;22.174;2022-07-29T08:05:22;100286.84;;;28.85;44.07
50349;BME280;36250;48.740;22.174;2022-07-29T08:07:47;100286.69;;;28.81;43.93
50349;BME280;36250;48.740;22.174;2022-07-29T08:10:16;100292.78;;;28.87;43.74
50349;BME280;36250;48.740;22.174;2022-07-29T08:13:05;100283.31;;;28.84;43.96
50349;BME280;36250;48.740;22.174;2022-07-29T08:15:31;100282.06;;;28.90;44.71
50349;BME280;36250;48.740;22.174;2022-07-29T08:17:56;100283.44;;;29.11;44.05
50349;BME280;36250;48.740;22.174;2022-07-29T08:20:21;100280.13;;;29.23;42.69
50349;BME280;36250;48.740;22.174;2022-07-29T08:22:46;100283.88;;;29.04;43.38
50349;BME280;36250;48.740;22.174;2022-07-29T08:25:12;100281.50;;;29.11;43.60
50349;BME280;36250;48.740;22.174;2022-07-29T08:27:37;100279.91;;;29.10;43.29
50349;BME280;36250;48.740;22.174;2022-07-29T08:30:02;100281.34;;;29.08;43.50
50349;BME280;36250;48.740;22.174;2022-07-29T08:32:28;100279.16;;;29.18;42.79
50349;BME280;36250;48.740;22.174;2022-07-29T08:34:53;100274.22;;;29.38;42.91
50349;BME280;36250;48.740;22.174;2022-07-29T08:37:18;100268.59;;;29.34;42.75
50349;BME280;36250;48.740;22.174;2022-07-29T08:39:43;100278.03;;;29.60;42.37
50349;BME280;36250;48.740;22.174;2022-07-29T08:42:10;100268.72;;;29.70;41.80
50349;BME280;36250;48.740;22.174;2022-07-29T08:44:35;100272.38;;;29.56;42.15
50349;BME280;36250;48.740;22.174;2022-07-29T08:47:01;100269.78;;;29.42;41.96
50349;BME280;36250;48.740;22.174;2022-07-29T08:49:26;100260.16;;;29.45;41.57
50349;BME280;36250;48.740;22.174;2022-07-29T08:51:51;100269.81;;;29.51;41.29
50349;BME280;36250;48.740;22.174;2022-07-29T08:54:18;100261.50;;;29.65;41.60
50349;BME280;36250;48.740;22.174;2022-07-29T08:56:44;100260.97;;;29.54;41.74
50349;BME280;36250;48.740;22.174;2022-07-29T08:59:10;100259.25;;;29.67;41.73
50349;BME280;36250;48.740;22.174;2022-07-29T09:01:37;100260.91;;;30.03;40.98
50349;BME280;36250;48.740;22.174;2022-07-29T09:04:03;100256.88;;;30.18;40.07
50349;BME280;36250;48.740;22.174;2022-07-29T09:06:29;100257.50;;;30.42;40.30
50349;BME280;36250;48.740;22.174;2022-07-29T09:08:58;100254.47;;;30.17;40.34
50349;BME280;36250;48.740;22.174;2022-07-29T09:11:23;100248.19;;;30.34;39.66
50349;BME280;36250;48.740;22.174;2022-07-29T09:13:49;100252.66;;;30.39;38.76
50349;BME280;36250;48.740;22.174;2022-07-29T09:16:14;100251.22;;;30.50;39.54
50349;BME280;36250;48.740;22.174;2022-07-29T09:18:40;100250.22;;;30.72;38.99
50349;BME280;36250;48.740;22.174;2022-07-29T09:21:09;100250.88;;;31.08;38.51
50349;BME280;36250;48.740;22.174;2022-07-29T09:26:32;100241.94;;;30.90;38.33
50349;BME280;36250;48.740;22.174;2022-07-29T09:28:58;100240.22;;;30.85;39.56
50349;BME280;36250;48.740;22.174;2022-07-29T09:31:31;100239.63;;;31.10;38.72
50349;BME280;36250;48.740;22.174;2022-07-29T09:33:58;100229.69;;;31.35;37.71
50349;BME280;36250;48.740;22.174;2022-07-29T09:36:25;100236.84;;;31.48;36.92
50349;BME280;36250;48.740;22.174;2022-07-29T09:38:59;100233.97;;;31.15;36.74
50349;BME280;36250;48.740;22.174;2022-07-29T09:41:25;100234.84;;;30.98;38.02
50349;BME280;36250;48.740;22.174;2022-07-29T09:43:58;100232.97;;;31.19;38.13
50349;BME280;36250;48.740;22.174;2022-07-29T09:46:23;100222.47;;;31.30;36.43
50349;BME280;36250;48.740;22.174;2022-07-29T09:49:05;100216.34;;;31.33;36.60
50349;BME280;36250;48.740;22.174;2022-07-29T09:51:30;100211.94;;;31.41;36.58
50349;BME280;36250;48.740;22.174;2022-07-29T09:53:55;100208.34;;;31.49;36.96
50349;BME280;36250;48.740;22.174;2022-07-29T09:56:37;100206.47;;;31.41;37.00
50349;BME280;36250;48.740;22.174;2022-07-29T09:59:06;100202.41;;;31.17;36.60
50349;BME280;36250;48.740;22.174;2022-07-29T10:01:32;100204.00;;;30.88;37.51
50349;BME280;36250;48.740;22.174;2022-07-29T10:03:57;100200.66;;;31.13;37.00
50349;BME280;36250;48.740;22.174;2022-07-29T10:06:22;100207.41;;;31.45;36.83
50349;BME280;36250;48.740;22.174;2022-07-29T10:08:47;100194.41;;;31.85;36.31
50349;BME280;36250;48.740;22.174;2022-07-29T10:11:15;100194.44;;;31.97;35.42
50349;BME280;36250;48.740;22.174;2022-07-29T10:13:41;100188.13;;;32.05;36.08
50349;BME280;36250;48.740;22.174;2022-07-29T10:16:07;100191.44;;;32.45;35.80
50349;BME280;36250;48.740;22.174;2022-07-29T10:18:33;100182.78;;;32.68;34.83
50349;BME280;36250;48.740;22.174;2022-07-29T10:20:58;100190.66;;;32.69;33.51
50349;BME280;36250;48.740;22.174;2022-07-29T10:23:26;100181.41;;;32.49;34.59
50349;BME280;36250;48.740;22.174;2022-07-29T10:25:51;100169.06;;;32.80;33.99
50349;BME280;36250;48.740;22.174;2022-07-29T10:28:16;100173.84;;;32.46;33.70
50349;BME280;36250;48.740;22.174;2022-07-29T10:30:41;100172.03;;;32.62;34.52
50349;BME280;36250;48.740;22.174;2022-07-29T10:44:01;100152.16;;;32.78;33.14
50349;BME280;36250;48.740;22.174;2022-07-29T10:46:27;100142.13;;;32.57;32.78
50349;BME280;36250;48.740;22.174;2022-07-29T10:49:09;100150.09;;;32.75;32.39
50349;BME280;36250;48.740;22.174;2022-07-29T10:54:16;100136.75;;;32.98;31.90
50349;BME280;36250;48.740;22.174;2022-07-29T10:56:41;100147.03;;;32.76;31.19
50349;BME280;36250;48.740;22.174;2022-07-29T11:01:44;100140.66;;;33.38;31.52
50349;BME280;36250;48.740;22.174;2022-07-29T11:04:10;100134.44;;;33.82;30.10
50349;BME280;36250;48.740;22.174;2022-07-29T11:09:19;100133.31;;;34.12;30.14
50349;BME280;36250;48.740;22.174;2022-07-29T11:11:44;100136.56;;;34.33;29.42
50349;BME280;36250;48.740;22.174;2022-07-29T11:14:10;100133.75;;;34.62;28.61
50349;BME280;36250;48.740;22.174;2022-07-29T11:16:57;100127.28;;;34.22;28.08
50349;BME280;36250;48.740;22.174;2022-07-29T11:19:23;100123.97;;;34.16;29.35
50349;BME280;36250;48.740;22.174;2022-07-29T11:21:49;100123.53;;;34.46;28.84
50349;BME280;36250;48.740;22.174;2022-07-29T11:24:21;100109.72;;;35.10;28.31
50349;BME280;36250;48.740;22.174;2022-07-29T11:29:32;100114.16;;;35.97;27.48
50349;BME280;36250;48.740;22.174;2022-07-29T11:32:13;100104.75;;;35.99;26.61
50349;BME280;36250;48.740;22.174;2022-07-29T11:34:44;100093.22;;;35.93;27.05
50349;BME280;36250;48.740;22.174;2022-07-29T11:39:37;100093.22;;;35.30;27.28
50349;BME280;36250;48.740;22.174;2022-07-29T11:42:36;100091.16;;;34.72;28.02
50349;BME280;36250;48.740;22.174;2022-07-29T11:44:53;100090.69;;;34.86;27.38
50349;BME280;36250;48.740;22.174;2022-07-29T11:47:19;100090.00;;;33.48;29.09
50349;BME280;36250;48.740;22.174;2022-07-29T11:49:45;100091.88;;;32.90;30.17
50349;BME280;36250;48.740;22.174;2022-07-29T11:52:10;100088.41;;;32.81;30.50
50349;BME280;36250;48.740;22.174;2022-07-29T11:54:35;100086.41;;;33.19;29.89
50349;BME280;36250;48.740;22.174;2022-07-29T11:57:06;100086.59;;;33.83;28.29
50349;BME280;36250;48.740;22.174;2022-07-29T11:59:31;100086.84;;;34.06;27.82
50349;BME280;36250;48.740;22.174;2022-07-29T12:02:03;100080.34;;;34.47;27.63
50349;BME280;36250;48.740;22.174;2022-07-29T12:04:28;100072.03;;;34.27;27.54
50349;BME280;36250;48.740;22.174;2022-07-29T12:06:54;100076.72;;;34.27;28.14
50349;BME280;36250;48.740;22.174;2022-07-29T12:09:19;100071.00;;;34.48;27.22
50349;BME280;36250;48.740;22.174;2022-07-29T12:11:45;100068.13;;;34.60;27.59
50349;BME280;36250;48.740;22.174;2022-07-29T12:16:51;100063.97;;;34.86;26.59
50349;BME280;36250;48.740;22.174;2022-07-29T12:19:16;100056.88;;;34.85;25.51
50349;BME280;36250;48.740;22.174;2022-07-29T12:21:45;100056.69;;;34.42;26.65
50349;BME280;36250;48.740;22.174;2022-07-29T12:24:11;100055.13;;;34.09;26.55
50349;BME280;36250;48.740;22.174;2022-07-29T12:26:36;100053.88;;;33.62;27.75
50349;BME280;36250;48.740;22.174;2022-07-29T12:29:16;100052.53;;;33.27;28.10
50349;BME280;36250;48.740;22.174;2022-07-29T12:31:42;100053.22;;;32.71;28.95
50349;BME280;36250;48.740;22.174;2022-07-29T12:34:08;100057.78;;;32.79;29.01
50349;BME280;36250;48.740;22.174;2022-07-29T12:36:33;100050.72;;;32.65;29.51
50349;BME280;36250;48.740;22.174;2022-07-29T12:38:58;100050.69;;;32.78;29.51
50349;BME280;36250;48.740;22.174;2022-07-29T12:41:24;100049.53;;;33.04;28.52
50349;BME280;36250;48.740;22.174;2022-07-29T12:43:53;100034.31;;;33.47;28.45
50349;BME280;36250;48.740;22.174;2022-07-29T12:46:18;100032.03;;;33.65;28.13
50349;BME280;36250;48.740;22.174;2022-07-29T12:48:49;100035.63;;;34.14;27.39
50349;BME280;36250;48.740;22.174;2022-07-29T12:51:14;100024.78;;;34.37;26.58
50349;BME280;36250;48.740;22.174;2022-07-29T12:53:41;100024.13;;;34.60;25.63
50349;BME280;36250;48.740;22.174;2022-07-29T12:56:26;100028.31;;;34.54;26.01
50349;BME280;36250;48.740;22.174;2022-07-29T12:58:51;100022.94;;;34.77;25.42
50349;BME280;36250;48.740;22.174;2022-07-29T13:01:17;100018.91;;;35.10;25.27
50349;BME280;36250;48.740;22.174;2022-07-29T13:03:44;100015.41;;;35.76;24.24
50349;BME280;36250;48.740;22.174;2022-07-29T13:09:13;100000.03;;;36.22;24.47
50349;BME280;36250;48.740;22.174;2022-07-29T13:11:43;100003.53;;;36.49;23.78
50349;BME280;36250;48.740;22.174;2022-07-29T13:14:09;99991.47;;;36.31;23.28
50349;BME280;36250;48.740;22.174;2022-07-29T13:16:36;99984.94;;;36.70;23.35
50349;BME280;36250;48.740;22.174;2022-07-29T13:19:04;99975.84;;;37.00;22.95
50349;BME280;36250;48.740;22.174;2022-07-29T13:21:30;99969.59;;;37.44;22.66
50349;BME280;36250;48.740;22.174;2022-07-29T13:23:55;99962.63;;;37.58;22.78
50349;BME280;36250;48.740;22.174;2022-07-29T13:26:20;99966.03;;;37.92;22.31
50349;BME280;36250;48.740;22.174;2022-07-29T13:28:45;99962.47;;;37.88;21.53